Time;durP1;ratioP1;P1;durP2;ratioP2;P2;SDS_P1;SDS_P2;PMS_P1;PMS_P2;Temp;Humidity;BMP_temperature;BMP_pressure;BME280_temperature;BME280_humidity;BME280_pressure;Samples;Min_cycle;Max_cycle;Signal;HPM_P1;HPM_P2
2022/10/02 00:02:02;;;;;;;22.98;3.90;;;10.60;99.90;;;;;;5041514;28;20163;-68
2022/10/02 00:04:52;;;;;;;12.30;3.60;;;10.70;99.90;;;;;;5021460;28;20147;-68
2022/10/02 00:07:22;;;;;;;16.88;3.53;;;10.70;99.90;;;;;;5035524;28;20117;-68
2022/10/02 00:09:54;;;;;;;20.23;3.55;;;10.60;99.90;;;;;;5037511;28;20496;-68
2022/10/02 00:12:23;;;;;;;15.65;2.72;;;10.80;99.90;;;;;;5036833;28;20100;-68
2022/10/02 00:14:53;;;;;;;15.73;3.08;;;10.80;99.90;;;;;;5047177;28;20075;-68
2022/10/02 00:17:24;;;;;;;15.73;3.17;;;10.80;99.90;;;;;;5037536;28;20047;-68
2022/10/02 00:19:56;;;;;;;18.17;2.70;;;10.80;99.90;;;;;;5037311;28;20037;-68
2022/10/02 00:22:36;;;;;;;24.83;3.88;;;10.80;99.90;;;;;;5039414;28;20096;-68
2022/10/02 00:25:05;;;;;;;17.33;2.97;;;10.80;99.90;;;;;;5043228;28;20032;-68
2022/10/02 00:27:48;;;;;;;12.55;2.38;;;10.80;99.90;;;;;;5044596;28;20463;-68
2022/10/02 00:30:16;;;;;;;13.05;2.63;;;10.80;99.90;;;;;;5040993;28;20072;-68
2022/10/02 00:32:57;;;;;;;9.88;2.15;;;10.80;99.90;;;;;;5041412;28;20045;-68
2022/10/02 00:35:53;;;;;;;17.15;2.70;;;10.80;99.90;;;;;;5038092;28;20106;-68
2022/10/02 00:38:43;;;;;;;11.35;2.42;;;10.80;99.90;;;;;;5046491;28;20557;-68
2022/10/02 00:41:14;;;;;;;13.25;2.72;;;10.80;99.90;;;;;;5026986;28;20067;-68
2022/10/02 00:43:59;;;;;;;11.68;2.60;;;10.70;99.90;;;;;;5038159;28;20045;-68
2022/10/02 00:46:31;;;;;;;13.05;2.42;;;10.70;99.90;;;;;;5042013;28;20447;-68
2022/10/02 00:49:08;;;;;;;10.40;2.33;;;10.70;99.90;;;;;;5040251;28;20049;-68
2022/10/02 00:51:40;;;;;;;12.98;2.08;;;10.60;99.90;;;;;;5042552;28;20095;-68
2022/10/02 00:54:29;;;;;;;11.98;1.90;;;10.60;99.90;;;;;;5042593;28;20459;-68
2022/10/02 00:56:57;;;;;;;14.52;2.33;;;10.60;99.90;;;;;;5043348;28;20052;-68
2022/10/02 00:59:38;;;;;;;8.60;1.92;;;10.50;99.90;;;;;;5041954;28;20052;-68
2022/10/02 01:02:11;;;;;;;9.95;1.70;;;10.50;99.90;;;;;;5046895;28;20079;-68
2022/10/02 01:04:38;;;;;;;13.48;2.30;;;10.50;99.90;;;;;;5042229;28;20718;-69
2022/10/02 01:07:07;;;;;;;11.90;2.13;;;10.50;99.90;;;;;;5039905;28;20041;-68
2022/10/02 01:09:33;;;;;;;14.48;2.58;;;10.50;99.90;;;;;;5043374;28;20042;-68
2022/10/02 01:12:00;;;;;;;10.77;1.55;;;10.50;99.90;;;;;;5035883;28;20095;-69
2022/10/02 01:14:37;;;;;;;11.70;1.80;;;10.50;99.90;;;;;;5029913;28;20057;-68
2022/10/02 01:17:17;;;;;;;13.27;2.08;;;10.50;99.90;;;;;;5040968;28;20120;-69
2022/10/02 01:19:43;;;;;;;9.88;2.47;;;10.50;99.90;;;;;;5042308;28;20361;-69
2022/10/02 01:22:54;;;;;;;10.27;1.70;;;10.50;99.90;;;;;;5042985;28;20050;-69
2022/10/02 01:25:20;;;;;;;10.65;1.65;;;10.50;99.90;;;;;;5010634;28;20099;-69
2022/10/02 01:27:46;;;;;;;9.00;2.20;;;10.50;99.90;;;;;;5041103;28;20336;-69
2022/10/02 01:30:15;;;;;;;14.10;1.92;;;10.50;99.90;;;;;;5044954;28;20049;-69
2022/10/02 01:32:51;;;;;;;12.80;2.25;;;10.60;99.90;;;;;;5042783;28;20053;-68
2022/10/02 01:35:19;;;;;;;9.50;1.80;;;10.60;99.90;;;;;;5042384;28;20076;-68
2022/10/02 01:37:45;;;;;;;7.55;1.77;;;10.60;99.90;;;;;;5043207;28;20041;-68
2022/10/02 01:40:25;;;;;;;9.02;1.75;;;10.60;99.90;;;;;;5040756;28;20084;-68
2022/10/02 01:42:51;;;;;;;12.32;2.05;;;10.60;99.90;;;;;;5036907;28;20053;-68
2022/10/02 01:45:20;;;;;;;14.23;2.03;;;10.60;99.90;;;;;;5041962;28;20029;-68
2022/10/02 01:47:56;;;;;;;11.80;1.88;;;10.60;99.90;;;;;;5035817;28;20041;-68
2022/10/02 01:50:31;;;;;;;12.75;2.30;;;10.70;99.90;;;;;;5039727;28;20048;-69
2022/10/02 01:53:15;;;;;;;9.80;2.10;;;10.70;99.90;;;;;;5039383;28;20329;-68
2022/10/02 01:55:59;;;;;;;13.40;2.45;;;10.70;99.90;;;;;;5042741;28;20400;-66
2022/10/02 01:58:25;;;;;;;14.23;2.72;;;10.70;99.90;;;;;;5037156;28;20072;-66
2022/10/02 02:01:23;;;;;;;15.75;2.65;;;10.70;99.90;;;;;;5023222;28;20045;-66
2022/10/02 02:04:15;;;;;;;13.20;2.15;;;10.80;99.90;;;;;;5044004;28;20045;-67
2022/10/02 02:07:01;;;;;;;12.07;2.58;;;10.70;99.90;;;;;;5041825;28;20486;-67
2022/10/02 02:09:41;;;;;;;14.73;2.67;;;10.70;99.90;;;;;;5042807;28;20458;-67
2022/10/02 02:12:52;;;;;;;15.98;2.95;;;10.70;99.90;;;;;;5039056;28;20067;-67
2022/10/02 02:15:35;;;;;;;19.42;2.70;;;10.60;99.90;;;;;;4989312;28;20043;-67
2022/10/02 02:18:27;;;;;;;15.57;2.60;;;10.70;99.90;;;;;;4988840;28;20050;-67
2022/10/02 02:20:57;;;;;;;15.82;2.60;;;10.60;99.90;;;;;;5033203;28;20046;-68
2022/10/02 02:23:31;;;;;;;14.70;2.33;;;10.70;99.90;;;;;;5045887;28;20091;-67
2022/10/02 02:26:03;;;;;;;15.65;2.45;;;10.70;99.90;;;;;;5042406;28;20068;-67
2022/10/02 02:28:32;;;;;;;14.15;2.45;;;10.70;99.90;;;;;;5039454;28;20063;-67
2022/10/02 02:31:00;;;;;;;21.55;2.80;;;10.70;99.90;;;;;;5039417;28;20040;-68
2022/10/02 02:33:43;;;;;;;22.95;2.95;;;10.70;99.90;;;;;;5047182;28;20436;-68
2022/10/02 02:36:13;;;;;;;17.35;2.40;;;10.70;99.90;;;;;;5045196;28;20053;-67
2022/10/02 02:38:47;;;;;;;14.07;2.88;;;10.70;99.90;;;;;;5044268;28;20087;-68
2022/10/02 02:41:18;;;;;;;17.80;2.40;;;10.70;99.90;;;;;;5042477;28;20068;-67
2022/10/02 02:44:14;;;;;;;21.58;3.30;;;10.70;99.90;;;;;;5043191;28;20039;-68
2022/10/02 02:47:05;;;;;;;14.60;2.58;;;10.70;99.90;;;;;;5033854;28;20049;-68
2022/10/02 02:49:50;;;;;;;18.88;2.63;;;10.70;99.90;;;;;;5043626;28;20559;-67
2022/10/02 02:52:28;;;;;;;17.88;2.03;;;10.70;99.90;;;;;;5044475;28;20045;-67
2022/10/02 02:55:06;;;;;;;17.80;2.90;;;10.80;99.90;;;;;;5038374;28;20029;-67
2022/10/02 02:57:49;;;;;;;18.58;2.70;;;10.70;99.90;;;;;;5038178;28;20055;-67
2022/10/02 03:00:16;;;;;;;27.52;2.90;;;10.80;99.90;;;;;;5039562;28;20040;-68
2022/10/02 03:02:41;;;;;;;16.88;2.92;;;10.70;99.90;;;;;;5042646;28;20147;-68
2022/10/02 03:05:13;;;;;;;19.35;2.53;;;10.70;99.90;;;;;;5036912;28;20033;-68
2022/10/02 03:07:41;;;;;;;14.07;2.60;;;10.70;99.90;;;;;;5039509;28;20041;-68
2022/10/02 03:10:17;;;;;;;13.52;2.58;;;10.80;99.90;;;;;;5040832;28;20056;-68
2022/10/02 03:13:15;;;;;;;16.50;2.55;;;10.90;99.90;;;;;;5039605;28;20103;-68
2022/10/02 03:15:52;;;;;;;18.63;2.80;;;10.80;99.90;;;;;;5040431;28;20091;-68
2022/10/02 03:18:50;;;;;;;16.00;2.05;;;10.80;99.90;;;;;;5041717;28;20473;-68
2022/10/02 03:21:27;;;;;;;17.75;2.38;;;10.80;99.90;;;;;;4997113;28;20128;-68
2022/10/02 03:24:06;;;;;;;16.60;2.45;;;10.70;99.90;;;;;;5045496;28;20055;-67
2022/10/02 03:26:39;;;;;;;13.02;2.15;;;10.70;99.90;;;;;;5053525;28;20492;-67
2022/10/02 03:29:38;;;;;;;18.90;2.42;;;10.60;99.90;;;;;;5046311;28;20033;-67
2022/10/02 03:32:07;;;;;;;12.93;2.17;;;10.70;99.90;;;;;;5027554;28;20056;-67
2022/10/02 03:34:34;;;;;;;13.15;2.25;;;10.60;99.90;;;;;;5036618;28;20045;-67
2022/10/02 03:37:01;;;;;;;12.68;2.30;;;10.50;99.90;;;;;;5034497;28;20045;-68
2022/10/02 03:39:26;;;;;;;15.52;1.90;;;10.50;99.90;;;;;;5042179;28;20044;-67
2022/10/02 03:41:52;;;;;;;13.88;1.73;;;10.50;99.90;;;;;;5037049;28;20034;-67
2022/10/02 03:44:18;;;;;;;12.63;1.35;;;10.50;99.90;;;;;;5036883;28;20064;-67
2022/10/02 03:46:44;;;;;;;7.32;1.38;;;10.40;99.90;;;;;;5043870;28;20360;-67
2022/10/02 03:49:10;;;;;;;11.75;1.58;;;10.40;99.90;;;;;;5040389;28;20042;-67
2022/10/02 03:51:35;;;;;;;11.80;1.92;;;10.40;99.90;;;;;;5043435;28;20053;-67
2022/10/02 03:54:02;;;;;;;9.82;1.50;;;10.30;99.90;;;;;;5037560;28;20043;-68
2022/10/02 03:56:45;;;;;;;8.80;1.40;;;10.30;99.90;;;;;;5036957;28;20053;-68
2022/10/02 03:59:17;;;;;;;8.35;1.13;;;10.20;99.90;;;;;;5043309;28;20056;-68
2022/10/02 04:01:49;;;;;;;14.95;1.98;;;10.20;99.90;;;;;;5044281;28;20038;-67
2022/10/02 04:04:25;;;;;;;12.52;1.60;;;10.20;99.90;;;;;;5038015;28;20106;-67
2022/10/02 04:06:59;;;;;;;13.05;1.70;;;10.10;99.90;;;;;;5043486;28;20045;-67
2022/10/02 04:09:28;;;;;;;9.57;1.30;;;10.20;99.90;;;;;;5047442;28;20048;-67
2022/10/02 04:12:15;;;;;;;13.10;1.85;;;10.10;99.90;;;;;;5042007;28;20042;-67
2022/10/02 04:14:54;;;;;;;14.18;1.48;;;10.10;99.90;;;;;;5038115;28;20433;-68
2022/10/02 04:17:22;;;;;;;16.02;1.92;;;10.00;99.90;;;;;;5049441;28;20053;-67
2022/10/02 04:19:56;;;;;;;11.93;1.90;;;10.10;99.90;;;;;;5048358;28;20033;-67
2022/10/02 04:22:38;;;;;;;11.23;1.30;;;10.00;99.90;;;;;;5040611;28;20448;-67
2022/10/02 04:25:20;;;;;;;16.73;2.03;;;10.00;99.90;;;;;;5042912;28;20034;-67
2022/10/02 04:27:58;;;;;;;11.43;1.35;;;10.00;99.90;;;;;;5044617;28;20044;-68
2022/10/02 04:30:24;;;;;;;10.20;1.38;;;10.00;99.90;;;;;;5043734;28;20417;-68
2022/10/02 04:32:50;;;;;;;10.30;1.50;;;9.90;99.90;;;;;;5038587;28;20124;-68
2022/10/02 04:35:34;;;;;;;9.95;1.67;;;9.90;99.90;;;;;;5042267;28;20072;-68
2022/10/02 04:38:16;;;;;;;18.40;2.10;;;9.90;99.90;;;;;;5050003;28;20103;-67
2022/10/02 04:41:02;;;;;;;15.68;2.20;;;9.90;99.90;;;;;;5042476;28;20095;-68
2022/10/02 04:43:56;;;;;;;9.63;1.60;;;9.90;99.90;;;;;;5049307;28;20041;-67
2022/10/02 04:46:39;;;;;;;10.70;1.38;;;9.90;99.90;;;;;;5028316;28;20045;-67
2022/10/02 04:49:16;;;;;;;12.57;1.65;;;9.80;99.90;;;;;;5047383;28;20048;-68
2022/10/02 04:52:06;;;;;;;11.93;1.65;;;9.80;99.90;;;;;;5038181;28;20065;-68
2022/10/02 04:54:50;;;;;;;17.02;1.90;;;9.80;99.90;;;;;;5027916;28;20061;-68
2022/10/02 04:57:46;;;;;;;19.40;2.60;;;9.80;99.90;;;;;;5042602;28;20079;-68
2022/10/02 05:00:19;;;;;;;16.48;1.73;;;9.70;99.90;;;;;;5041325;28;20099;-67
2022/10/02 05:02:47;;;;;;;13.30;1.73;;;9.70;99.90;;;;;;5042526;28;20096;-67
2022/10/02 05:06:04;;;;;;;16.05;2.05;;;9.70;99.90;;;;;;5041608;28;20037;-67
2022/10/02 05:08:56;;;;;;;14.32;1.95;;;9.70;99.90;;;;;;5045506;28;20107;-67
2022/10/02 05:11:38;;;;;;;18.00;2.13;;;9.60;99.90;;;;;;5034578;28;20072;-67
2022/10/02 05:14:30;;;;;;;15.23;1.85;;;9.60;99.90;;;;;;5041461;28;20037;-67
2022/10/02 05:17:27;;;;;;;14.18;2.15;;;9.60;99.90;;;;;;5032107;28;20045;-67
2022/10/02 05:20:09;;;;;;;14.15;2.28;;;9.50;99.90;;;;;;5039229;28;20045;-67
2022/10/02 05:22:47;;;;;;;19.83;2.53;;;9.50;99.90;;;;;;5044047;28;20045;-67
2022/10/02 05:25:51;;;;;;;11.48;1.95;;;9.50;99.90;;;;;;5041182;28;20390;-67
2022/10/02 05:28:37;;;;;;;18.60;1.98;;;9.50;99.90;;;;;;5045045;28;20128;-67
2022/10/02 05:31:16;;;;;;;12.05;2.08;;;9.40;99.90;;;;;;5036219;28;20041;-67
2022/10/02 05:34:10;;;;;;;12.98;2.10;;;9.40;99.90;;;;;;5047983;28;20167;-67
2022/10/02 05:37:05;;;;;;;14.05;2.20;;;9.40;99.90;;;;;;5039706;28;20040;-67
2022/10/02 05:39:35;;;;;;;20.15;2.20;;;9.40;99.90;;;;;;5040412;28;20077;-68
2022/10/02 05:42:23;;;;;;;21.65;2.85;;;9.30;99.90;;;;;;5040389;28;20504;-68
2022/10/02 05:44:59;;;;;;;20.13;2.60;;;9.30;99.90;;;;;;5046378;28;20028;-67
2022/10/02 05:47:30;;;;;;;16.42;2.15;;;9.30;99.90;;;;;;5023846;28;20672;-67
2022/10/02 05:50:17;;;;;;;22.27;2.47;;;9.30;99.90;;;;;;5044677;28;20144;-67
2022/10/02 05:52:55;;;;;;;18.08;2.40;;;9.30;99.90;;;;;;5043548;28;20071;-67
2022/10/02 05:55:26;;;;;;;21.17;3.22;;;9.40;99.90;;;;;;5045448;28;20106;-67
2022/10/02 05:58:04;;;;;;;15.57;2.90;;;9.40;99.90;;;;;;5041173;28;20049;-67
2022/10/02 06:00:50;;;;;;;18.42;2.08;;;9.40;99.90;;;;;;5040607;28;20391;-67
2022/10/02 06:03:40;;;;;;;18.67;2.70;;;9.40;99.90;;;;;;5043039;28;20040;-67
2022/10/02 06:06:20;;;;;;;23.73;3.58;;;9.50;99.90;;;;;;5042088;28;20045;-68
2022/10/02 06:08:52;;;;;;;21.58;3.30;;;9.50;99.90;;;;;;5038149;28;20170;-67
2022/10/02 06:11:29;;;;;;;20.20;3.20;;;9.60;99.90;;;;;;5038795;28;20064;-67
2022/10/02 06:14:16;;;;;;;20.05;3.45;;;9.70;99.90;;;;;;5046074;28;20053;-67
2022/10/02 06:16:51;;;;;;;21.98;3.47;;;9.70;99.90;;;;;;5035176;28;20076;-67
2022/10/02 06:19:23;;;;;;;;;;;9.80;99.90;;;;;;5039563;28;20087;-67
2022/10/02 06:21:55;;;;;;;18.30;2.92;;;9.80;99.90;;;;;;5041397;28;19924;-67
2022/10/02 06:24:27;;;;;;;17.38;2.83;;;9.90;99.90;;;;;;5041103;28;20041;-68
2022/10/02 06:27:03;;;;;;;16.20;2.70;;;10.00;99.90;;;;;;5041712;28;20080;-68
2022/10/02 06:29:56;;;;;;;16.08;2.65;;;10.10;99.90;;;;;;5037978;28;20071;-68
2022/10/02 06:32:30;;;;;;;24.75;3.58;;;10.10;99.90;;;;;;5041704;28;20037;-68
2022/10/02 06:34:56;;;;;;;21.83;3.00;;;10.30;99.90;;;;;;5040412;28;20057;-68
2022/10/02 06:37:39;;;;;;;24.33;3.50;;;10.40;99.90;;;;;;5039233;28;20033;-68
2022/10/02 06:40:50;;;;;;;25.13;3.88;;;10.50;99.90;;;;;;5040851;28;20064;-68
2022/10/02 06:43:39;;;;;;;25.90;3.55;;;10.70;99.90;;;;;;5021623;28;20132;-68
2022/10/02 06:46:26;;;;;;;17.90;3.67;;;10.90;99.90;;;;;;5038565;28;20076;-68
2022/10/02 06:49:03;;;;;;;19.92;3.78;;;11.00;99.90;;;;;;5039378;28;20045;-68
2022/10/02 06:52:13;;;;;;;23.38;3.90;;;11.20;99.90;;;;;;5041023;28;20607;-68
2022/10/02 06:54:47;;;;;;;20.42;3.88;;;11.30;99.90;;;;;;5036290;28;20124;-68
2022/10/02 06:57:42;;;;;;;23.05;3.60;;;11.40;99.90;;;;;;5039032;28;20064;-68
2022/10/02 07:00:17;;;;;;;13.50;2.97;;;11.60;99.90;;;;;;5049333;28;20107;-68
2022/10/02 07:03:01;;;;;;;17.20;3.40;;;11.80;99.90;;;;;;5042289;28;20044;-68
2022/10/02 07:05:45;;;;;;;12.95;2.65;;;11.90;99.90;;;;;;5041603;28;20060;-68
2022/10/02 07:08:30;;;;;;;22.83;3.40;;;12.20;99.90;;;;;;5042075;28;20075;-69
2022/10/02 07:11:20;;;;;;;21.35;3.33;;;12.30;99.90;;;;;;5051482;28;20044;-68
2022/10/02 07:13:55;;;;;;;22.90;3.05;;;12.60;99.90;;;;;;5031486;28;20564;-68
2022/10/02 07:16:46;;;;;;;17.75;3.13;;;12.80;99.90;;;;;;5044722;28;20037;-68
2022/10/02 07:19:31;;;;;;;19.65;2.95;;;13.20;99.90;;;;;;5045272;28;20045;-68
2022/10/02 07:22:08;;;;;;;21.25;3.13;;;13.60;99.90;;;;;;5048490;28;20069;-68
2022/10/02 07:25:02;;;;;;;18.63;2.67;;;14.10;99.90;;;;;;5049774;28;20160;-68
2022/10/02 07:27:42;;;;;;;15.73;2.88;;;14.80;99.90;;;;;;5016898;28;20129;-68
2022/10/02 07:30:11;;;;;;;14.15;2.30;;;15.80;99.90;;;;;;5050172;28;20479;-68
2022/10/02 07:33:07;;;;;;;11.32;2.55;;;16.80;99.90;;;;;;5044540;28;20045;-68
2022/10/02 07:35:39;;;;;;;12.40;2.15;;;17.20;99.90;;;;;;5044615;28;20053;-68
2022/10/02 07:38:20;;;;;;;18.30;2.95;;;16.90;99.90;;;;;;5047614;28;20144;-68
2022/10/02 07:41:10;;;;;;;17.45;2.67;;;16.50;99.90;;;;;;5055666;28;20049;-68
2022/10/02 07:43:45;;;;;;;17.45;2.30;;;16.10;99.90;;;;;;5050558;28;20049;-68
2022/10/02 07:46:41;;;;;;;13.32;2.67;;;15.60;99.90;;;;;;5046666;28;20091;-68
2022/10/02 07:49:20;;;;;;;12.05;2.97;;;15.10;99.90;;;;;;5046645;28;20045;-68
2022/10/02 07:51:55;;;;;;;10.20;2.13;;;14.80;99.90;;;;;;5043202;28;20040;-68
2022/10/02 07:54:37;;;;;;;11.32;2.05;;;15.60;99.90;;;;;;5046216;28;20039;-69
2022/10/02 07:57:26;;;;;;;15.27;2.47;;;16.70;99.90;;;;;;5044112;28;20061;-69
2022/10/02 08:00:01;;;;;;;12.02;1.90;;;17.90;99.90;;;;;;5031778;28;20126;-69
2022/10/02 08:03:03;;;;;;;9.93;1.85;;;18.60;99.90;;;;;;5025888;28;20092;-69
2022/10/02 08:05:53;;;;;;;12.85;2.33;;;19.10;99.90;;;;;;5045185;28;20040;-69
2022/10/02 08:08:22;;;;;;;9.13;1.98;;;19.80;99.90;;;;;;5045205;28;20037;-69
2022/10/02 08:10:57;;;;;;;13.05;2.40;;;20.50;99.90;;;;;;5045595;28;20045;-69
2022/10/02 08:13:31;;;;;;;11.73;2.28;;;20.50;99.90;;;;;;5040569;28;20124;-69
2022/10/02 08:15:56;;;;;;;10.13;1.60;;;20.00;99.90;;;;;;5045011;28;20528;-69
2022/10/02 08:18:39;;;;;;;11.57;1.95;;;19.20;99.90;;;;;;5035749;28;20151;-69
2022/10/02 08:21:18;;;;;;;10.80;2.35;;;18.50;99.90;;;;;;5034637;28;20091;-69
2022/10/02 08:24:03;;;;;;;12.52;1.98;;;18.80;99.90;;;;;;5042403;28;20122;-69
2022/10/02 08:26:46;;;;;;;49.00;43.92;;;19.60;99.90;;;;;;5043756;28;20051;-69
2022/10/02 08:29:39;;;;;;;27.77;20.48;;;20.60;99.90;;;;;;5042307;28;20064;-69
2022/10/02 08:32:10;;;;;;;10.30;2.47;;;21.30;99.90;;;;;;5038084;28;20050;-69
2022/10/02 08:34:37;;;;;;;12.73;2.10;;;21.60;99.90;;;;;;5041516;28;20056;-70
2022/10/02 08:37:17;;;;;;;9.13;1.88;;;21.70;99.90;;;;;;5045723;28;20034;-69
2022/10/02 08:40:27;;;;;;;10.57;1.98;;;22.10;99.90;;;;;;5041405;28;20039;-69
2022/10/02 08:43:09;;;;;;;9.95;1.90;;;22.50;99.90;;;;;;5028707;28;20076;-69
2022/10/02 08:45:41;;;;;;;15.80;2.78;;;22.90;99.90;;;;;;5040548;28;20037;-69
2022/10/02 08:48:38;;;;;;;9.25;1.80;;;23.00;99.90;;;;;;5042916;28;20175;-69
2022/10/02 08:51:19;;;;;;;7.97;1.50;;;23.30;99.90;;;;;;5049606;28;20052;-69
2022/10/02 08:54:11;;;;;;;10.32;2.17;;;23.50;99.90;;;;;;5047498;28;20049;-69
2022/10/02 08:56:57;;;;;;;12.55;2.13;;;23.50;99.90;;;;;;5041222;28;20068;-69
2022/10/02 08:59:25;;;;;;;9.88;1.98;;;23.50;99.90;;;;;;5040524;28;20045;-69
2022/10/02 09:02:28;;;;;;;12.25;4.35;;;23.50;99.90;;;;;;5045461;28;20117;-69
2022/10/02 09:05:17;;;;;;;10.52;2.20;;;23.40;97.80;;;;;;5043170;28;20049;-69
2022/10/02 09:08:08;;;;;;;9.73;1.77;;;23.40;99.90;;;;;;5038118;28;20053;-69
2022/10/02 09:10:44;;;;;;;9.20;1.80;;;23.20;99.30;;;;;;5040479;28;20136;-69
2022/10/02 09:13:22;;;;;;;8.07;1.88;;;22.90;99.90;;;;;;5042752;28;20485;-69
2022/10/02 09:16:10;;;;;;;14.10;2.10;;;23.00;99.90;;;;;;5041214;28;20370;-69
2022/10/02 09:19:20;;;;;;;9.07;1.73;;;22.80;99.00;;;;;;5037466;28;20072;-69
2022/10/02 09:21:57;;;;;;;9.95;2.38;;;22.30;97.80;;;;;;5000659;28;20068;-68
2022/10/02 09:24:26;;;;;;;9.48;2.17;;;21.70;99.90;;;;;;5039172;28;20529;-68
2022/10/02 09:27:04;;;;;;;10.95;1.77;;;20.70;99.90;;;;;;5038801;28;20037;-68
2022/10/02 09:29:49;;;;;;;12.82;2.25;;;20.30;99.90;;;;;;5037511;28;20061;-68
2022/10/02 09:32:17;;;;;;;8.13;2.10;;;20.00;99.70;;;;;;5042780;28;20077;-68
2022/10/02 09:34:57;;;;;;;10.68;2.00;;;19.40;99.90;;;;;;5040179;28;20052;-68
2022/10/02 09:37:53;;;;;;;8.77;1.90;;;18.80;99.90;;;;;;5037949;28;20045;-68
2022/10/02 09:40:33;;;;;;;8.57;1.83;;;18.20;99.90;;;;;;5042046;28;20193;-68
2022/10/02 09:42:59;;;;;;;11.85;1.95;;;17.80;99.90;;;;;;5044679;28;20102;-68
2022/10/02 09:45:25;;;;;;;12.73;3.13;;;17.70;99.90;;;;;;5041368;28;20396;-68
2022/10/02 09:48:30;;;;;;;10.00;1.95;;;17.50;99.90;;;;;;5038657;28;20280;-68
2022/10/02 09:50:55;;;;;;;12.73;2.08;;;18.30;99.90;;;;;;5041362;28;20064;-68
2022/10/02 09:53:36;;;;;;;10.30;1.75;;;19.00;99.90;;;;;;5039350;28;20128;-68
2022/10/02 09:56:21;;;;;;;11.13;2.17;;;19.00;99.90;;;;;;5038449;28;20049;-68
2022/10/02 09:59:00;;;;;;;;;;;18.90;99.90;;;;;;5040799;28;20052;-69
2022/10/02 10:01:53;;;;;;;11.80;1.98;;;19.60;99.90;;;;;;5033486;28;19916;-68
2022/10/02 10:05:09;;;;;;;10.43;1.98;;;20.50;99.90;;;;;;5041092;28;20045;-68
2022/10/02 10:07:46;;;;;;;9.80;1.90;;;21.20;96.40;;;;;;4964906;28;20137;-69
2022/10/02 10:10:51;;;;;;;11.63;1.75;;;21.60;98.20;;;;;;5037711;28;20054;-68
2022/10/02 10:13:39;;;;;;;10.82;1.73;;;21.70;96.10;;;;;;4975337;28;20052;-69
2022/10/02 10:16:18;;;;;;;10.63;2.00;;;22.00;97.10;;;;;;5033407;28;20086;-69
2022/10/02 10:19:15;;;;;;;9.77;2.20;;;22.30;96.00;;;;;;5043884;28;20098;-69
2022/10/02 10:22:16;;;;;;;6.43;1.40;;;22.60;94.50;;;;;;5041893;28;20044;-69
2022/10/02 10:25:19;;;;;;;11.93;2.17;;;22.60;90.20;;;;;;4976641;28;20481;-68
2022/10/02 10:27:57;;;;;;;9.95;2.15;;;21.70;82.80;;;;;;5032338;28;20041;-69
2022/10/02 10:30:26;;;;;;;9.60;1.58;;;20.90;90.80;;;;;;5044891;28;20048;-68
2022/10/02 10:33:33;;;;;;;10.77;2.22;;;20.60;90.20;;;;;;5039272;28;20144;-68
2022/10/02 10:39:04;;;;;;;12.45;2.05;;;20.30;90.90;;;;;;5040167;28;20048;-68
2022/10/02 10:42:00;;;;;;;8.88;2.10;;;21.10;91.10;;;;;;5037557;28;20385;-68
2022/10/02 10:44:54;;;;;;;8.80;1.83;;;21.70;88.90;;;;;;5014093;28;20049;-68
2022/10/02 10:47:45;;;;;;;6.57;1.42;;;22.20;88.20;;;;;;5042887;28;20388;-69
2022/10/02 10:50:19;;;;;;;6.68;1.73;;;22.50;79.10;;;;;;5044546;28;20053;-69
2022/10/02 10:53:23;;;;;;;10.82;2.25;;;22.30;82.40;;;;;;5039577;28;20044;-69
2022/10/02 10:56:18;;;;;;;10.32;2.15;;;22.50;74.70;;;;;;5020569;28;20591;-69
2022/10/02 10:59:17;;;;;;;9.85;2.00;;;22.40;76.60;;;;;;5039667;28;20049;-69
2022/10/02 11:02:13;;;;;;;10.82;1.80;;;22.40;78.60;;;;;;5040605;28;20477;-69
2022/10/02 11:05:03;;;;;;;7.45;1.73;;;21.90;79.10;;;;;;5052263;28;20052;-70
2022/10/02 11:07:49;;;;;;;8.98;2.15;;;22.10;81.70;;;;;;5034923;28;20437;-70
2022/10/02 11:10:40;;;;;;;13.40;4.15;;;22.80;85.30;;;;;;5039516;28;20158;-70
2022/10/02 11:13:19;;;;;;;14.63;3.00;;;22.90;82.60;;;;;;5036722;28;20084;-70
2022/10/02 11:16:12;;;;;;;9.75;1.85;;;23.20;77.00;;;;;;5044555;28;20041;-70
2022/10/02 11:18:59;;;;;;;7.82;1.45;;;23.80;76.50;;;;;;5038474;28;20149;-70
2022/10/02 11:21:59;;;;;;;8.43;1.75;;;24.20;74.90;;;;;;5042501;28;20040;-70
2022/10/02 11:24:50;;;;;;;8.98;1.58;;;22.90;70.00;;;;;;5037777;28;20131;-70
2022/10/02 11:27:48;;;;;;;8.65;1.58;;;20.80;78.50;;;;;;5043881;28;20120;-69
2022/10/02 11:30:22;;;;;;;8.43;1.63;;;19.20;85.60;;;;;;5039955;28;20041;-69
2022/10/02 11:33:27;;;;;;;10.27;2.22;;;18.00;93.50;;;;;;5036728;28;20048;-69
2022/10/02 11:35:53;;;;;;;;;;;17.30;98.10;;;;;;5040403;28;20489;-68
2022/10/02 11:38:49;;;;;;;11.63;2.00;;;16.70;99.90;;;;;;5035850;28;19966;-69
2022/10/02 11:41:42;;;;;;;10.75;2.00;;;16.70;99.90;;;;;;5041863;28;20076;-69
2022/10/02 11:44:11;;;;;;;11.18;2.00;;;16.90;99.90;;;;;;5041278;28;20046;-69
2022/10/02 11:46:55;;;;;;;10.70;2.28;;;17.70;99.90;;;;;;5037634;28;20041;-69
2022/10/02 11:49:30;;;;;;;12.00;1.80;;;18.90;99.90;;;;;;5039076;28;20048;-69
2022/10/02 11:52:25;;;;;;;10.00;1.98;;;20.30;99.90;;;;;;5040065;28;20044;-69
2022/10/02 11:55:29;;;;;;;13.98;2.90;;;21.00;96.50;;;;;;5037357;28;20415;-70
2022/10/02 11:58:27;;;;;;;11.60;2.00;;;21.00;93.90;;;;;;5042057;28;20052;-69
2022/10/02 12:01:24;;;;;;;10.50;1.65;;;20.50;93.90;;;;;;5041055;28;20500;-69
2022/10/02 12:04:08;;;;;;;9.93;2.53;;;20.10;94.40;;;;;;5039850;28;20150;-70
2022/10/02 12:06:34;;;;;;;;;;;19.20;95.50;;;;;;5044278;28;20045;-69
2022/10/02 12:09:25;;;;;;;14.45;2.30;;;19.20;95.00;;;;;;5041260;28;19939;-69
2022/10/02 12:12:09;;;;;;;12.52;3.42;;;20.20;94.70;;;;;;5040910;28;20113;-69
2022/10/02 12:15:03;;;;;;;11.93;2.72;;;21.20;93.30;;;;;;5038784;28;20049;-69
2022/10/02 12:17:44;;;;;;;10.40;1.97;;;22.00;87.60;;;;;;5057351;28;20064;-71
2022/10/02 12:29:47;;;;;;;7.95;1.73;;;23.50;71.60;;;;;;5043892;28;20708;-69
2022/10/02 12:32:35;;;;;;;12.00;2.30;;;23.20;70.20;;;;;;5045808;28;20053;-68
2022/10/02 12:35:15;;;;;;;11.27;1.63;;;22.80;73.50;;;;;;5041641;28;20043;-69
2022/10/02 12:37:52;;;;;;;12.30;1.77;;;21.50;76.50;;;;;;5042218;28;20525;-69
2022/10/02 12:40:36;;;;;;;9.20;1.70;;;20.40;79.00;;;;;;5043359;28;20079;-69
2022/10/02 12:43:39;;;;;;;9.48;2.08;;;20.30;80.20;;;;;;5037990;28;20053;-69
2022/10/02 12:46:32;;;;;;;9.30;1.85;;;20.90;78.00;;;;;;5044848;28;20389;-69
2022/10/02 12:49:18;;;;;;;9.27;1.38;;;21.10;77.60;;;;;;5039514;28;20110;-69
2022/10/02 12:52:14;;;;;;;13.38;2.13;;;21.60;78.20;;;;;;5042280;28;20120;-69
2022/10/02 12:55:22;;;;;;;8.52;1.90;;;21.80;74.60;;;;;;5013953;28;20041;-69
2022/10/02 12:58:11;;;;;;;8.13;1.80;;;22.10;73.80;;;;;;5042797;28;20095;-69
2022/10/02 13:01:05;;;;;;;11.40;2.20;;;22.40;76.40;;;;;;5024122;28;20072;-69
2022/10/02 13:04:17;;;;;;;10.93;1.90;;;22.70;70.70;;;;;;5041221;28;20730;-69
2022/10/02 13:07:29;;;;;;;10.68;1.90;;;22.90;74.30;;;;;;4967631;28;20122;-69
2022/10/02 13:10:24;;;;;;;7.93;1.85;;;22.70;71.60;;;;;;5044842;28;20492;-69
2022/10/02 13:13:08;;;;;;;9.85;1.85;;;22.70;70.80;;;;;;5042430;28;20084;-69
2022/10/02 13:15:41;;;;;;;13.38;2.15;;;23.00;72.80;;;;;;5040627;28;20037;-69
2022/10/02 13:18:25;;;;;;;8.63;1.57;;;22.90;70.00;;;;;;5042945;28;20095;-69
2022/10/02 13:21:10;;;;;;;9.77;2.25;;;22.80;71.00;;;;;;5042878;28;20197;-69
2022/10/02 13:23:50;;;;;;;8.48;1.63;;;22.70;74.10;;;;;;5043111;28;20042;-69
2022/10/02 13:26:32;;;;;;;9.75;1.83;;;22.30;71.70;;;;;;5044747;28;20551;-69
2022/10/02 13:29:23;;;;;;;8.05;1.90;;;21.90;75.10;;;;;;5043416;28;20075;-69
2022/10/02 13:32:26;;;;;;;11.80;2.38;;;21.60;74.50;;;;;;5045780;28;20052;-69
2022/10/02 13:34:52;;;;;;;10.02;2.05;;;21.00;77.90;;;;;;5040644;28;20120;-69
2022/10/02 13:37:30;;;;;;;9.48;1.77;;;20.30;82.90;;;;;;5038386;28;20139;-69
2022/10/02 13:40:11;;;;;;;8.82;1.83;;;19.80;82.50;;;;;;5041963;28;20120;-69
2022/10/02 13:42:57;;;;;;;76.47;58.65;;;19.20;81.50;;;;;;5025637;28;20049;-68
2022/10/02 13:45:41;;;;;;;9.48;3.97;;;18.70;82.40;;;;;;5047316;28;20046;-68
2022/10/02 13:48:22;;;;;;;10.95;2.03;;;18.40;83.80;;;;;;5023408;28;20096;-68
2022/10/02 13:51:01;;;;;;;9.20;1.70;;;18.10;83.80;;;;;;5044380;28;20041;-69
2022/10/02 13:54:04;;;;;;;6.82;1.33;;;17.90;85.50;;;;;;5039451;28;20055;-69
2022/10/02 13:56:51;;;;;;;7.18;1.63;;;17.80;85.50;;;;;;5040394;28;20046;-68
2022/10/02 13:59:32;;;;;;;10.23;1.77;;;17.50;86.80;;;;;;5041505;28;20061;-68
2022/10/02 14:02:13;;;;;;;7.78;1.55;;;17.30;89.90;;;;;;5035444;28;20513;-68
2022/10/02 14:04:49;;;;;;;8.30;1.65;;;17.20;90.90;;;;;;5041040;28;20049;-68
2022/10/02 14:07:41;;;;;;;8.68;1.50;;;17.10;92.00;;;;;;5036134;28;20504;-68
2022/10/02 14:10:34;;;;;;;12.27;1.50;;;17.10;92.40;;;;;;5030712;28;20057;-68